Time;durP1;ratioP1;P1;durP2;ratioP2;P2;SDS_P1;SDS_P2;PMS_P1;PMS_P2;Temp;Humidity;BMP_temperature;BMP_pressure;BME280_temperature;BME280_humidity;BME280_pressure;Samples;Min_cycle;Max_cycle;Signal;HPM_P1;HPM_P2
2021/07/08 04:14:25;;;;;;;8.35;6.82;;;;;;;;;;5869751;23;20051;-77
2021/07/08 04:16:50;;;;;;;11.20;7.07;;;;;;;;;;4950497;28;1340331;-78
2021/07/08 04:19:16;;;;;;;8.48;6.43;;;;;;;;;;5019230;28;20067;-85
2021/07/08 04:21:41;;;;;;;8.80;6.63;;;;;;;;;;4991816;28;20085;-83
2021/07/08 04:24:06;;;;;;;9.57;7.50;;;;;;;;;;4988883;28;20095;-81
2021/07/08 04:26:31;;;;;;;10.13;7.22;;;;;;;;;;4985170;28;20716;-79
2021/07/08 04:28:57;;;;;;;8.53;7.33;;;;;;;;;;4987624;28;20093;-79
2021/07/08 04:31:22;;;;;;;10.87;7.00;;;;;;;;;;4989264;28;20031;-79
2021/07/08 04:33:47;;;;;;;9.38;6.90;;;;;;;;;;4972088;28;20028;-84
2021/07/08 04:36:13;;;;;;;10.50;7.87;;;;;;;;;;4989153;28;20030;-81
2021/07/08 04:38:41;;;;;;;11.38;7.00;;;;;;;;;;4982248;28;20026;-77
2021/07/08 04:41:06;;;;;;;10.38;7.20;;;;;;;;;;4990503;28;20058;-86
2021/07/08 04:43:31;;;;;;;10.07;7.10;;;;;;;;;;4987477;28;20026;-77
2021/07/08 04:45:57;;;;;;;12.43;7.67;;;;;;;;;;5002213;28;20643;-82
2021/07/08 04:48:22;;;;;;;13.43;7.93;;;;;;;;;;4965665;28;20124;-76
2021/07/08 04:50:47;;;;;;;10.43;7.53;;;;;;;;;;4988334;28;20042;-79
2021/07/08 04:53:16;;;;;;;12.03;7.87;;;;;;;;;;4992209;28;20041;-82
2021/07/08 04:55:41;;;;;;;10.43;7.78;;;;;;;;;;4993123;28;20038;-87
2021/07/08 04:58:06;;;;;;;10.27;8.63;;;;;;;;;;4975652;28;20531;-82
2021/07/08 05:00:32;;;;;;;12.50;8.23;;;;;;;;;;4991876;28;20392;-82
2021/07/08 05:02:57;;;;;;;11.45;7.75;;;;;;;;;;4992148;28;20029;-79
2021/07/08 05:05:22;;;;;;;10.73;8.53;;;;;;;;;;4992137;28;20030;-80
2021/07/08 05:07:50;;;;;;;11.50;7.85;;;;;;;;;;4991605;28;20026;-81
2021/07/08 05:10:15;;;;;;;9.57;7.10;;;;;;;;;;4988923;28;20035;-82
2021/07/08 05:12:40;;;;;;;11.48;7.93;;;;;;;;;;4969129;28;20041;-84
2021/07/08 05:15:06;;;;;;;10.93;7.93;;;;;;;;;;4959543;28;20481;-82
2021/07/08 05:17:31;;;;;;;14.20;7.68;;;;;;;;;;4982816;28;20113;-79
2021/07/08 05:19:56;;;;;;;11.33;7.40;;;;;;;;;;5007351;28;20102;-78
2021/07/08 05:22:22;;;;;;;13.93;7.73;;;;;;;;;;5005360;28;20038;-78
2021/07/08 05:24:48;;;;;;;9.65;7.75;;;;;;;;;;5000467;28;20275;-79
2021/07/08 05:27:16;;;;;;;10.07;7.72;;;;;;;;;;4981922;28;20039;-79
2021/07/08 05:29:44;;;;;;;10.32;8.18;;;;;;;;;;4974716;28;20026;-82
2021/07/08 05:32:10;;;;;;;11.40;7.85;;;;;;;;;;4965736;28;20076;-78
2021/07/08 05:34:35;;;;;;;13.38;7.95;;;;;;;;;;4967596;28;20511;-84
2021/07/08 05:37:00;;;;;;;13.40;8.10;;;;;;;;;;4963595;28;20142;-78
2021/07/08 05:39:25;;;;;;;10.80;7.78;;;;;;;;;;4991867;28;20269;-80
2021/07/08 05:41:51;;;;;;;12.17;8.37;;;;;;;;;;4974667;28;20026;-88
2021/07/08 05:44:16;;;;;;;10.40;8.17;;;;;;;;;;4964948;28;20022;-86
2021/07/08 05:46:41;;;;;;;10.55;7.65;;;;;;;;;;4975695;28;20113;-86
2021/07/08 05:49:06;;;;;;;10.13;7.57;;;;;;;;;;4995192;28;20064;-88
2021/07/08 05:51:32;;;;;;;14.93;8.20;;;;;;;;;;4975657;28;20034;-92
2021/07/08 05:53:59;;;;;;;10.20;8.40;;;;;;;;;;4974233;28;20034;-86
2021/07/08 05:56:25;;;;;;;11.07;7.95;;;;;;;;;;4992867;28;20563;-84
2021/07/08 05:58:51;;;;;;;12.18;8.10;;;;;;;;;;4990443;28;20023;-82
2021/07/08 06:01:16;;;;;;;11.27;7.25;;;;;;;;;;4990171;28;20018;-84
2021/07/08 06:03:41;;;;;;;13.67;7.83;;;;;;;;;;4991118;28;20065;-90
2021/07/08 06:06:07;;;;;;;12.27;8.32;;;;;;;;;;4994610;28;20026;-87
2021/07/08 06:08:32;;;;;;;10.43;8.00;;;;;;;;;;4992542;28;20038;-85
2021/07/08 06:10:57;;;;;;;11.50;8.23;;;;;;;;;;4974419;28;20109;-89
2021/07/08 06:13:23;;;;;;;10.40;8.47;;;;;;;;;;4974529;28;20074;-88
2021/07/08 06:15:48;;;;;;;11.50;7.78;;;;;;;;;;4982982;28;20304;-84
2021/07/08 06:18:13;;;;;;;12.10;8.10;;;;;;;;;;4993788;28;20031;-80
2021/07/08 06:20:38;;;;;;;10.30;7.93;;;;;;;;;;4990762;28;20037;-79
2021/07/08 06:23:04;;;;;;;12.23;8.37;;;;;;;;;;4989198;28;20029;-77
2021/07/08 06:25:30;;;;;;;12.30;8.23;;;;;;;;;;4990234;28;20035;-75
2021/07/08 06:27:56;;;;;;;9.38;7.47;;;;;;;;;;4988874;28;20025;-75
2021/07/08 06:30:21;;;;;;;11.57;7.38;;;;;;;;;;4970703;28;20034;-73
2021/07/08 06:32:47;;;;;;;9.60;6.33;;;;;;;;;;4990946;28;20092;-73
2021/07/08 06:35:14;;;;;;;12.52;7.60;;;;;;;;;;4991025;28;20030;-73
2021/07/08 06:37:39;;;;;;;10.45;7.13;;;;;;;;;;5008507;28;20021;-73
2021/07/08 06:40:05;;;;;;;9.60;6.78;;;;;;;;;;4988054;28;20019;-72
2021/07/08 06:42:30;;;;;;;12.15;6.93;;;;;;;;;;5006743;28;20338;-72
2021/07/08 06:44:55;;;;;;;10.48;6.35;;;;;;;;;;5008249;28;20511;-73
2021/07/08 06:47:21;;;;;;;8.83;6.40;;;;;;;;;;5009788;28;20389;-72
2021/07/08 06:49:47;;;;;;;9.65;7.00;;;;;;;;;;5008022;28;20314;-72
2021/07/08 06:52:12;;;;;;;10.60;6.77;;;;;;;;;;5008142;28;20103;-73
2021/07/08 06:54:37;;;;;;;11.55;6.38;;;;;;;;;;4981073;28;20271;-73
2021/07/08 06:57:03;;;;;;;10.88;6.95;;;;;;;;;;5007853;28;20038;-73
2021/07/08 06:59:28;;;;;;;11.45;6.47;;;;;;;;;;5007766;28;20022;-72
2021/07/08 07:01:54;;;;;;;8.73;6.25;;;;;;;;;;5008514;28;20021;-72
2021/07/08 07:04:20;;;;;;;8.90;6.50;;;;;;;;;;5008175;28;20088;-73
2021/07/08 07:06:45;;;;;;;8.52;6.20;;;;;;;;;;5008452;28;20314;-72
2021/07/08 07:09:10;;;;;;;9.87;6.50;;;;;;;;;;5007929;28;20100;-73
2021/07/08 07:11:36;;;;;;;9.50;6.53;;;;;;;;;;5007931;28;20022;-73
2021/07/08 07:14:01;;;;;;;9.35;6.43;;;;;;;;;;5008201;28;20276;-73
2021/07/08 07:16:26;;;;;;;9.83;6.93;;;;;;;;;;5007576;28;20581;-73
2021/07/08 07:18:52;;;;;;;8.25;5.82;;;;;;;;;;5007945;28;20469;-73
2021/07/08 07:21:17;;;;;;;10.27;6.63;;;;;;;;;;5007119;28;20092;-73
2021/07/08 07:23:42;;;;;;;8.10;6.07;;;;;;;;;;4990040;28;20079;-73
2021/07/08 07:26:08;;;;;;;8.18;6.07;;;;;;;;;;5007574;28;20099;-73
2021/07/08 07:28:33;;;;;;;9.23;6.50;;;;;;;;;;5007119;28;20018;-73
2021/07/08 07:30:58;;;;;;;8.65;6.53;;;;;;;;;;4989078;28;20404;-73
2021/07/08 07:33:24;;;;;;;7.50;6.07;;;;;;;;;;5007611;28;20037;-73
2021/07/08 07:35:49;;;;;;;7.10;5.85;;;;;;;;;;5007083;28;20010;-73
2021/07/08 07:38:15;;;;;;;8.80;6.40;;;;;;;;;;5007109;28;20018;-73
2021/07/08 07:40:41;;;;;;;9.52;6.13;;;;;;;;;;5007352;28;20021;-72
2021/07/08 07:43:06;;;;;;;9.10;5.95;;;;;;;;;;5007904;28;20489;-72
2021/07/08 07:45:31;;;;;;;8.13;6.17;;;;;;;;;;5007516;28;20041;-72
2021/07/08 07:47:57;;;;;;;8.30;6.23;;;;;;;;;;5002655;28;20264;-72
2021/07/08 07:50:24;;;;;;;9.00;6.50;;;;;;;;;;4966795;28;20364;-72
2021/07/08 07:52:52;;;;;;;9.50;6.18;;;;;;;;;;4950727;28;20655;-72
2021/07/08 07:55:17;;;;;;;9.05;6.05;;;;;;;;;;4951286;28;20039;-72
2021/07/08 07:57:43;;;;;;;8.98;6.05;;;;;;;;;;4968990;28;20045;-71
2021/07/08 08:00:08;;;;;;;9.32;6.72;;;;;;;;;;4967887;28;20484;-71
2021/07/08 08:02:34;;;;;;;8.10;5.82;;;;;;;;;;4967295;28;20099;-72
2021/07/08 08:10:14;;;;;;;7.70;6.05;;;;;;;;;;4968304;28;20038;-72
2021/07/08 08:12:39;;;;;;;7.78;5.85;;;;;;;;;;4967502;28;20031;-72
2021/07/08 08:15:08;;;;;;;7.97;6.03;;;;;;;;;;4967717;28;20046;-71
2021/07/08 08:17:34;;;;;;;6.93;5.30;;;;;;;;;;4968216;28;20035;-72
2021/07/08 08:19:59;;;;;;;7.07;5.38;;;;;;;;;;4950819;28;20257;-71
2021/07/08 08:22:24;;;;;;;8.07;5.80;;;;;;;;;;4967754;28;20027;-72
2021/07/08 08:24:51;;;;;;;7.23;5.47;;;;;;;;;;4971449;28;20341;-72
2021/07/08 08:27:16;;;;;;;6.85;5.60;;;;;;;;;;4971107;28;20031;-72
2021/07/08 08:29:41;;;;;;;7.32;5.55;;;;;;;;;;4972010;28;20090;-71
2021/07/08 08:32:07;;;;;;;8.30;5.37;;;;;;;;;;4971627;28;20015;-71
2021/07/08 08:34:32;;;;;;;6.15;5.07;;;;;;;;;;4985158;28;20100;-71
2021/07/08 08:36:58;;;;;;;8.67;5.37;;;;;;;;;;4991042;28;20114;-71
2021/07/08 08:39:23;;;;;;;6.27;5.17;;;;;;;;;;4988269;28;20018;-71
2021/07/08 08:41:48;;;;;;;5.33;4.80;;;;;;;;;;4973169;28;20277;-72
2021/07/08 08:44:13;;;;;;;6.40;5.05;;;;;;;;;;4953613;28;20027;-72
2021/07/08 08:46:38;;;;;;;7.13;4.87;;;;;;;;;;4953644;28;20394;-72
2021/07/08 08:49:04;;;;;;;7.47;5.70;;;;;;;;;;4980755;28;20463;-71
2021/07/08 08:51:29;;;;;;;6.38;5.10;;;;;;;;;;4990533;28;20281;-72
2021/07/08 08:53:55;;;;;;;8.73;5.35;;;;;;;;;;4990066;28;20076;-71
2021/07/08 08:56:20;;;;;;;7.75;5.25;;;;;;;;;;4991011;28;20048;-71
2021/07/08 08:58:45;;;;;;;7.00;4.90;;;;;;;;;;4990902;28;20518;-71
2021/07/08 09:01:14;;;;;;;8.33;5.17;;;;;;;;;;4984708;28;20340;-71
2021/07/08 09:03:39;;;;;;;6.13;5.13;;;;;;;;;;4971607;28;20023;-71
2021/07/08 09:06:06;;;;;;;5.97;5.15;;;;;;;;;;4970513;28;20030;-72
2021/07/08 09:08:32;;;;;;;6.10;4.80;;;;;;;;;;4971169;28;20321;-71
2021/07/08 09:11:01;;;;;;;5.47;4.53;;;;;;;;;;4975112;28;20117;-71
2021/07/08 09:13:26;;;;;;;5.63;4.50;;;;;;;;;;4990513;28;20046;-71
2021/07/08 09:15:52;;;;;;;7.10;4.85;;;;;;;;;;4989449;28;20547;-71
2021/07/08 09:18:17;;;;;;;6.60;5.00;;;;;;;;;;4971527;28;20561;-71
2021/07/08 09:20:42;;;;;;;5.37;4.20;;;;;;;;;;4990081;28;20026;-71
2021/07/08 09:23:09;;;;;;;6.53;4.82;;;;;;;;;;4969223;28;20441;-72
2021/07/08 09:25:35;;;;;;;6.90;4.75;;;;;;;;;;4970096;28;20027;-71
2021/07/08 09:28:21;;;;;;;5.95;4.70;;;;;;;;;;4970808;28;20027;-71
2021/07/08 09:30:54;;;;;;;6.10;4.45;;;;;;;;;;4968900;28;20099;-71
2021/07/08 09:33:35;;;;;;;6.32;4.50;;;;;;;;;;4970522;28;20109;-74
2021/07/08 09:36:11;;;;;;;6.63;4.88;;;;;;;;;;4967678;28;20499;-74
2021/07/08 09:38:36;;;;;;;7.20;4.18;;;;;;;;;;4985690;28;20033;-72
2021/07/08 09:41:10;;;;;;;7.40;4.93;;;;;;;;;;4969479;28;20464;-71
2021/07/08 09:43:37;;;;;;;7.30;4.70;;;;;;;;;;4968189;28;20116;-72
2021/07/08 09:46:02;;;;;;;7.38;4.90;;;;;;;;;;4970500;28;20421;-72
2021/07/08 09:48:28;;;;;;;6.90;4.47;;;;;;;;;;4969389;28;20035;-72
2021/07/08 09:50:55;;;;;;;5.97;4.67;;;;;;;;;;4970113;28;20042;-72
2021/07/08 09:53:25;;;;;;;7.75;4.80;;;;;;;;;;4969063;28;20027;-71
2021/07/08 09:55:56;;;;;;;7.90;4.95;;;;;;;;;;4970149;28;20076;-72
2021/07/08 09:58:21;;;;;;;7.00;4.90;;;;;;;;;;4970273;28;20034;-72
2021/07/08 10:00:47;;;;;;;8.65;4.90;;;;;;;;;;4969172;28;20549;-71
2021/07/08 10:03:12;;;;;;;7.53;4.63;;;;;;;;;;4969449;28;20405;-73
2021/07/08 10:05:37;;;;;;;11.63;5.10;;;;;;;;;;4952102;28;20121;-72
2021/07/08 10:08:04;;;;;;;7.13;4.63;;;;;;;;;;4984560;28;20176;-72
2021/07/08 10:10:29;;;;;;;6.47;4.85;;;;;;;;;;4970649;28;20527;-72
2021/07/08 10:12:54;;;;;;;7.65;4.57;;;;;;;;;;4988688;28;20129;-72
2021/07/08 10:15:19;;;;;;;7.00;4.90;;;;;;;;;;4973152;28;20126;-72
2021/07/08 10:17:45;;;;;;;8.23;4.97;;;;;;;;;;4969742;28;20269;-72
2021/07/08 10:20:11;;;;;;;5.87;4.33;;;;;;;;;;4987589;28;20292;-72
2021/07/08 10:22:37;;;;;;;7.13;4.20;;;;;;;;;;5007875;28;20261;-72
2021/07/08 10:25:06;;;;;;;7.75;4.47;;;;;;;;;;5008512;28;20816;-72
2021/07/08 10:27:31;;;;;;;6.10;4.78;;;;;;;;;;5008732;28;20025;-72
2021/07/08 10:29:57;;;;;;;6.47;4.70;;;;;;;;;;5008453;28;20129;-72
2021/07/08 10:32:22;;;;;;;6.53;4.43;;;;;;;;;;4990744;28;20261;-72
2021/07/08 10:34:48;;;;;;;7.70;4.33;;;;;;;;;;4971663;28;20023;-72
2021/07/08 10:37:26;;;;;;;5.75;4.60;;;;;;;;;;4969421;28;20030;-72
2021/07/08 10:39:52;;;;;;;6.60;4.57;;;;;;;;;;4967463;28;20121;-71
2021/07/08 10:42:36;;;;;;;6.95;4.85;;;;;;;;;;4967629;28;20613;-72
2021/07/08 10:45:02;;;;;;;6.35;4.50;;;;;;;;;;4967756;28;20040;-77
2021/07/08 10:47:31;;;;;;;6.90;4.68;;;;;;;;;;4970028;28;20023;-77
2021/07/08 10:49:56;;;;;;;9.77;5.40;;;;;;;;;;4968499;28;20054;-81
2021/07/08 10:52:40;;;;;;;7.17;4.63;;;;;;;;;;4970289;28;20517;-87
2021/07/08 10:55:05;;;;;;;7.90;4.90;;;;;;;;;;4970089;28;20811;-83
2021/07/08 10:57:34;;;;;;;7.00;4.70;;;;;;;;;;4970527;28;20054;-91
2021/07/08 10:59:59;;;;;;;6.40;4.80;;;;;;;;;;4952510;28;20033;-83
2021/07/08 11:02:46;;;;;;;7.40;5.23;;;;;;;;;;4980426;28;20503;-77
2021/07/08 11:05:35;;;;;;;5.60;4.55;;;;;;;;;;5008472;28;20504;-79
2021/07/08 11:08:00;;;;;;;6.90;4.95;;;;;;;;;;5007723;28;20432;-78
2021/07/08 11:10:32;;;;;;;6.38;4.97;;;;;;;;;;4990316;28;20088;-78
2021/07/08 11:13:10;;;;;;;6.25;4.40;;;;;;;;;;5008374;28;20080;-78
2021/07/08 11:15:51;;;;;;;6.13;4.85;;;;;;;;;;4960203;28;20047;-78
2021/07/08 11:18:30;;;;;;;5.53;4.40;;;;;;;;;;4969577;28;20039;-77
2021/07/08 11:20:55;;;;;;;6.63;5.03;;;;;;;;;;4967827;28;20054;-77
2021/07/08 11:23:37;;;;;;;6.90;5.00;;;;;;;;;;4969009;28;20026;-77
2021/07/08 11:26:02;;;;;;;6.10;4.40;;;;;;;;;;4967992;28;20513;-77
2021/07/08 11:28:29;;;;;;;5.63;4.80;;;;;;;;;;4969033;28;20041;-77
2021/07/08 11:31:01;;;;;;;7.53;4.72;;;;;;;;;;4951657;28;20023;-78
2021/07/08 11:33:27;;;;;;;6.03;4.50;;;;;;;;;;4968711;28;20031;-78
2021/07/08 11:35:57;;;;;;;5.93;4.68;;;;;;;;;;4950450;28;20035;-78
2021/07/08 11:38:23;;;;;;;5.60;4.65;;;;;;;;;;4969302;28;20036;-78
2021/07/08 11:40:49;;;;;;;6.47;4.43;;;;;;;;;;4969793;28;20030;-78
2021/07/08 11:43:14;;;;;;;5.63;4.10;;;;;;;;;;4988276;28;20030;-77
2021/07/08 11:45:39;;;;;;;6.43;4.63;;;;;;;;;;4982457;28;20105;-78
2021/07/08 11:48:05;;;;;;;6.07;4.93;;;;;;;;;;4968117;28;20262;-77
2021/07/08 11:50:31;;;;;;;6.10;4.50;;;;;;;;;;4968340;28;20273;-78
2021/07/08 11:53:16;;;;;;;5.95;4.80;;;;;;;;;;4968303;28;20031;-77
2021/07/08 11:55:41;;;;;;;6.05;4.55;;;;;;;;;;4953729;28;20027;-78
2021/07/08 11:58:07;;;;;;;6.20;4.47;;;;;;;;;;4953759;28;20528;-78
2021/07/08 12:00:35;;;;;;;5.60;4.45;;;;;;;;;;4974023;28;20086;-78
2021/07/08 12:03:01;;;;;;;5.35;4.20;;;;;;;;;;4972597;28;20038;-78
2021/07/08 12:05:26;;;;;;;6.85;4.50;;;;;;;;;;4975072;28;20386;-80
2021/07/08 12:10:29;;;;;;;5.40;4.28;;;;;;;;;;4972944;28;20472;-78
2021/07/08 12:12:57;;;;;;;5.57;4.50;;;;;;;;;;4955142;28;20026;-80
2021/07/08 12:15:22;;;;;;;6.10;4.38;;;;;;;;;;4955783;28;20125;-78
2021/07/08 12:17:51;;;;;;;6.13;4.32;;;;;;;;;;4972412;28;20034;-77
2021/07/08 12:20:16;;;;;;;5.28;4.18;;;;;;;;;;4974140;28;20027;-78
2021/07/08 12:22:55;;;;;;;6.40;4.40;;;;;;;;;;4975078;28;20037;-78
2021/07/08 12:25:21;;;;;;;5.13;3.92;;;;;;;;;;4973159;28;20081;-78
2021/07/08 12:27:46;;;;;;;5.78;4.35;;;;;;;;;;4972052;28;20441;-79
2021/07/08 12:30:15;;;;;;;5.00;4.10;;;;;;;;;;4973109;28;20078;-79
2021/07/08 12:32:41;;;;;;;4.80;3.70;;;;;;;;;;4974623;28;20070;-78
2021/07/08 12:35:06;;;;;;;5.68;4.47;;;;;;;;;;4965612;28;20019;-79
2021/07/08 12:37:34;;;;;;;4.80;4.18;;;;;;;;;;4972496;28;20031;-78
2021/07/08 12:39:59;;;;;;;5.43;4.00;;;;;;;;;;4973529;28;20057;-81
2021/07/08 12:42:25;;;;;;;4.97;4.10;;;;;;;;;;4973693;28;20062;-74
2021/07/08 12:44:54;;;;;;;6.05;4.30;;;;;;;;;;4990246;28;20030;-75
2021/07/08 12:47:20;;;;;;;6.32;4.70;;;;;;;;;;4990674;28;20087;-75
2021/07/08 12:49:48;;;;;;;4.65;3.92;;;;;;;;;;4990827;28;20034;-86
2021/07/08 12:52:13;;;;;;;6.10;4.40;;;;;;;;;;4979262;28;20420;-90
2021/07/08 12:54:39;;;;;;;5.13;3.93;;;;;;;;;;4978243;28;20018;-77
2021/07/08 12:57:08;;;;;;;5.65;4.38;;;;;;;;;;4992377;28;20277;-80
2021/07/08 12:59:33;;;;;;;4.60;3.95;;;;;;;;;;4977163;28;20416;-76
2021/07/08 13:01:59;;;;;;;5.00;4.03;;;;;;;;;;4972907;28;20034;-84
2021/07/08 13:04:29;;;;;;;6.03;4.18;;;;;;;;;;4963404;28;20277;-78
2021/07/08 13:07:02;;;;;;;5.82;4.20;;;;;;;;;;4991986;28;20022;-77
2021/07/08 13:09:28;;;;;;;6.70;4.18;;;;;;;;;;4982434;28;20054;-76
2021/07/08 13:11:53;;;;;;;4.95;4.30;;;;;;;;;;4979314;28;20050;-75
2021/07/08 13:14:23;;;;;;;8.27;4.23;;;;;;;;;;4978608;28;20033;-76
2021/07/08 13:17:20;;;;;;;4.80;4.00;;;;;;;;;;4980415;28;20050;-76
2021/07/08 13:19:46;;;;;;;5.03;3.70;;;;;;;;;;4932665;28;20124;-79
2021/07/08 13:22:15;;;;;;;5.97;3.85;;;;;;;;;;4972568;28;20486;-77
2021/07/08 13:24:41;;;;;;;5.45;3.88;;;;;;;;;;4969584;28;20557;-77
2021/07/08 13:27:06;;;;;;;6.43;4.30;;;;;;;;;;4971055;28;20081;-76
2021/07/08 13:29:32;;;;;;;4.90;3.70;;;;;;;;;;4971184;28;20438;-77
2021/07/08 13:31:57;;;;;;;5.73;4.13;;;;;;;;;;4972217;28;20023;-78
2021/07/08 13:34:23;;;;;;;4.47;3.60;;;;;;;;;;4970875;28;20824;-77
2021/07/08 13:36:48;;;;;;;5.63;4.07;;;;;;;;;;4971724;28;20281;-79
2021/07/08 13:39:13;;;;;;;5.47;4.00;;;;;;;;;;4971141;28;20095;-79
2021/07/08 13:41:39;;;;;;;5.10;3.80;;;;;;;;;;4971885;28;20063;-80
2021/07/08 13:44:05;;;;;;;5.00;3.83;;;;;;;;;;4976509;28;20282;-80
2021/07/08 13:46:30;;;;;;;5.30;4.13;;;;;;;;;;4990998;28;20022;-79
2021/07/08 13:49:06;;;;;;;4.07;3.58;;;;;;;;;;4988534;28;20038;-78
2021/07/08 13:51:31;;;;;;;5.35;3.63;;;;;;;;;;4990176;28;20420;-78
2021/07/08 13:53:57;;;;;;;5.32;4.28;;;;;;;;;;4962636;28;20030;-78
2021/07/08 13:56:22;;;;;;;4.45;3.80;;;;;;;;;;4970882;28;20428;-79
2021/07/08 13:58:48;;;;;;;5.15;3.83;;;;;;;;;;4969188;28;20029;-78
2021/07/08 14:01:14;;;;;;;4.40;3.67;;;;;;;;;;4971187;28;20039;-78
2021/07/08 14:03:39;;;;;;;4.97;3.60;;;;;;;;;;4971756;28;20070;-78
2021/07/08 14:06:04;;;;;;;4.70;3.65;;;;;;;;;;4970681;28;20019;-78
2021/07/08 14:08:51;;;;;;;4.38;3.42;;;;;;;;;;4969761;28;20030;-79
2021/07/08 14:11:16;;;;;;;4.13;3.25;;;;;;;;;;4955698;28;20039;-79
2021/07/08 14:13:41;;;;;;;5.03;3.75;;;;;;;;;;4953385;28;20413;-78
2021/07/08 14:16:07;;;;;;;4.35;3.40;;;;;;;;;;4972532;28;20081;-78
2021/07/08 14:18:32;;;;;;;4.85;4.05;;;;;;;;;;4968765;28;20722;-78
2021/07/08 14:20:57;;;;;;;5.28;3.97;;;;;;;;;;4965920;28;20027;-77
2021/07/08 14:23:22;;;;;;;3.75;3.22;;;;;;;;;;4989592;28;20104;-79
2021/07/08 14:25:48;;;;;;;4.47;3.30;;;;;;;;;;4988865;28;20022;-79
2021/07/08 14:28:14;;;;;;;5.15;3.33;;;;;;;;;;4978154;28;20799;-75
2021/07/08 14:30:40;;;;;;;4.07;3.47;;;;;;;;;;4989728;28;20481;-78
2021/07/08 14:33:05;;;;;;;5.07;3.88;;;;;;;;;;4989235;28;20089;-76
2021/07/08 14:35:30;;;;;;;4.00;3.35;;;;;;;;;;4976485;28;20030;-78
2021/07/08 14:37:55;;;;;;;4.90;3.27;;;;;;;;;;4970093;28;20026;-77
2021/07/08 14:40:21;;;;;;;3.70;3.00;;;;;;;;;;4977535;28;20721;-78
2021/07/08 14:42:49;;;;;;;4.05;3.40;;;;;;;;;;4989203;28;20261;-78
2021/07/08 14:45:14;;;;;;;5.68;4.20;;;;;;;;;;4988124;28;20034;-77
2021/07/08 14:47:40;;;;;;;4.18;3.10;;;;;;;;;;4989165;28;20648;-77
2021/07/08 14:50:05;;;;;;;4.70;3.30;;;;;;;;;;4970921;28;20037;-77
2021/07/08 14:52:33;;;;;;;4.20;3.30;;;;;;;;;;4969142;28;20093;-77
2021/07/08 14:54:58;;;;;;;3.88;3.08;;;;;;;;;;4978810;28;20034;-77
2021/07/08 14:57:24;;;;;;;3.90;3.10;;;;;;;;;;4988705;28;20089;-77
2021/07/08 14:59:51;;;;;;;5.17;3.20;;;;;;;;;;4987793;28;20109;-78
2021/07/08 15:02:16;;;;;;;4.40;3.05;;;;;;;;;;4988617;28;20014;-78
2021/07/08 15:04:41;;;;;;;4.32;3.05;;;;;;;;;;4988207;28;20440;-77
2021/07/08 15:07:07;;;;;;;3.83;3.17;;;;;;;;;;4988745;28;20128;-78
2021/07/08 15:09:32;;;;;;;3.83;3.30;;;;;;;;;;4987966;28;20074;-78
2021/07/08 15:11:57;;;;;;;4.72;3.25;;;;;;;;;;4988845;28;20033;-77
2021/07/08 15:14:23;;;;;;;4.07;3.00;;;;;;;;;;4980417;28;20077;-77
2021/07/08 15:16:48;;;;;;;3.43;2.90;;;;;;;;;;4981618;28;20043;-75
2021/07/08 15:19:14;;;;;;;4.78;3.28;;;;;;;;;;4976559;28;20125;-74
2021/07/08 15:21:41;;;;;;;4.18;3.35;;;;;;;;;;4979656;28;20022;-77
2021/07/08 15:24:06;;;;;;;4.18;3.10;;;;;;;;;;4977163;28;20030;-76
2021/07/08 15:26:31;;;;;;;6.13;3.35;;;;;;;;;;4988794;28;20027;-78
2021/07/08 15:28:57;;;;;;;4.60;3.20;;;;;;;;;;4988560;28;20038;-79
2021/07/08 15:31:22;;;;;;;4.63;3.50;;;;;;;;;;4988304;28;20828;-77
2021/07/08 15:33:56;;;;;;;4.22;3.33;;;;;;;;;;4989372;28;20034;-77
2021/07/08 15:36:22;;;;;;;3.90;3.03;;;;;;;;;;4970897;28;20116;-77
2021/07/08 15:38:47;;;;;;;4.43;3.23;;;;;;;;;;4988135;28;20130;-78
2021/07/08 15:41:12;;;;;;;3.95;3.13;;;;;;;;;;4988465;28;20088;-78
2021/07/08 15:43:37;;;;;;;4.60;2.90;;;;;;;;;;4988422;28;20023;-77
2021/07/08 15:46:03;;;;;;;4.07;3.43;;;;;;;;;;4988370;28;20041;-77
2021/07/08 15:48:28;;;;;;;4.15;2.88;;;;;;;;;;4988750;28;20317;-80
2021/07/08 15:50:56;;;;;;;4.33;3.10;;;;;;;;;;4989248;28;20022;-79
2021/07/08 15:53:21;;;;;;;4.07;3.08;;;;;;;;;;4988661;28;20323;-79
2021/07/08 15:55:47;;;;;;;3.88;3.05;;;;;;;;;;4988715;28;20030;-79
2021/07/08 15:58:12;;;;;;;3.47;2.77;;;;;;;;;;4970905;28;20037;-80
2021/07/08 16:00:37;;;;;;;3.63;2.90;;;;;;;;;;4988889;28;20118;-79
2021/07/08 16:03:02;;;;;;;4.30;2.90;;;;;;;;;;4988617;28;20050;-79
2021/07/08 16:05:28;;;;;;;3.88;3.28;;;;;;;;;;4988558;28;20775;-80
2021/07/08 16:07:53;;;;;;;3.67;2.90;;;;;;;;;;4988697;28;20030;-79
2021/07/08 16:10:18;;;;;;;4.03;3.00;;;;;;;;;;4983657;28;20282;-82
2021/07/08 16:12:44;;;;;;;3.70;2.90;;;;;;;;;;4985018;28;20044;-79
2021/07/08 16:15:09;;;;;;;3.30;2.67;;;;;;;;;;4971061;28;20033;-79
2021/07/08 16:17:40;;;;;;;3.60;2.88;;;;;;;;;;4988323;28;20023;-79
2021/07/08 16:20:06;;;;;;;4.07;3.25;;;;;;;;;;4988442;28;20018;-80
2021/07/08 16:22:31;;;;;;;3.63;2.67;;;;;;;;;;4988819;28;20076;-80
2021/07/08 16:24:57;;;;;;;4.50;2.80;;;;;;;;;;4971705;28;20030;-81
2021/07/08 16:27:22;;;;;;;4.73;3.30;;;;;;;;;;4988551;28;20037;-80
2021/07/08 16:29:47;;;;;;;4.50;2.67;;;;;;;;;;4988557;28;20625;-80
2021/07/08 16:32:12;;;;;;;4.97;2.92;;;;;;;;;;4988645;28;20270;-79
2021/07/08 16:34:38;;;;;;;4.10;3.10;;;;;;;;;;4988832;28;20030;-80
2021/07/08 16:37:03;;;;;;;3.70;2.97;;;;;;;;;;4988373;28;20332;-80
2021/07/08 16:39:28;;;;;;;3.78;2.90;;;;;;;;;;4988042;28;20010;-79
2021/07/08 16:41:54;;;;;;;3.63;2.93;;;;;;;;;;4971179;28;20524;-79
2021/07/08 16:44:19;;;;;;;3.50;2.92;;;;;;;;;;4990482;28;20489;-80
2021/07/08 16:46:44;;;;;;;4.40;2.90;;;;;;;;;;4973940;28;20491;-80
2021/07/08 16:49:11;;;;;;;3.80;3.13;;;;;;;;;;4992516;28;20394;-80
2021/07/08 16:51:36;;;;;;;4.55;3.10;;;;;;;;;;4992139;28;20010;-79
2021/07/08 16:54:02;;;;;;;3.38;2.55;;;;;;;;;;4991802;28;20520;-80
2021/07/08 16:56:28;;;;;;;3.23;2.60;;;;;;;;;;4991242;28;20109;-80
2021/07/08 16:58:54;;;;;;;3.22;2.70;;;;;;;;;;4991952;28;20257;-80
2021/07/08 17:01:19;;;;;;;3.80;2.58;;;;;;;;;;4991876;28;20031;-80
2021/07/08 17:03:44;;;;;;;3.40;2.67;;;;;;;;;;4991608;28;20026;-81
2021/07/08 17:06:10;;;;;;;3.17;2.67;;;;;;;;;;4992328;28;20025;-80
2021/07/08 17:08:36;;;;;;;4.18;3.05;;;;;;;;;;4992034;28;20068;-79
2021/07/08 17:11:02;;;;;;;3.60;2.63;;;;;;;;;;4991482;28;20041;-80
2021/07/08 17:13:27;;;;;;;3.13;2.83;;;;;;;;;;4991451;28;20018;-80
2021/07/08 17:15:52;;;;;;;3.75;2.75;;;;;;;;;;4991877;28;20054;-79
2021/07/08 17:18:18;;;;;;;3.33;2.67;;;;;;;;;;4990765;28;20014;-81
2021/07/08 17:20:43;;;;;;;4.00;2.70;;;;;;;;;;4991701;28;20679;-80
2021/07/08 17:23:08;;;;;;;3.85;2.97;;;;;;;;;;4992019;28;20030;-80
2021/07/08 17:25:34;;;;;;;3.55;2.83;;;;;;;;;;4991368;28;20085;-80
2021/07/08 17:27:59;;;;;;;3.23;2.70;;;;;;;;;;4990826;28;20110;-80
2021/07/08 17:30:24;;;;;;;3.50;2.90;;;;;;;;;;4991149;28;20262;-80
2021/07/08 17:32:50;;;;;;;4.35;2.75;;;;;;;;;;4990908;28;20101;-79
2021/07/08 17:35:15;;;;;;;3.47;2.40;;;;;;;;;;4991264;28;20014;-80
2021/07/08 17:37:41;;;;;;;3.53;2.83;;;;;;;;;;4990874;28;20026;-80
2021/07/08 17:40:06;;;;;;;3.42;2.67;;;;;;;;;;4973330;28;20088;-80
2021/07/08 17:42:31;;;;;;;3.17;2.60;;;;;;;;;;4992306;28;20398;-80
2021/07/08 17:44:57;;;;;;;3.87;2.53;;;;;;;;;;4992994;28;20473;-80
2021/07/08 17:47:22;;;;;;;3.53;2.50;;;;;;;;;;4977884;28;20268;-78
2021/07/08 17:49:47;;;;;;;4.63;3.00;;;;;;;;;;4996343;28;20276;-80
2021/07/08 17:52:13;;;;;;;3.72;2.80;;;;;;;;;;5015020;28;20009;-80
2021/07/08 17:54:39;;;;;;;3.40;3.00;;;;;;;;;;4997293;28;20077;-77
2021/07/08 17:57:04;;;;;;;4.03;3.05;;;;;;;;;;4997409;28;20032;-80
2021/07/08 17:59:29;;;;;;;3.25;2.63;;;;;;;;;;4992223;28;20028;-79
2021/07/08 18:01:55;;;;;;;4.07;2.80;;;;;;;;;;4991701;28;20121;-79
2021/07/08 18:04:20;;;;;;;3.43;2.67;;;;;;;;;;4990859;28;20019;-80
2021/07/08 18:06:45;;;;;;;3.20;2.77;;;;;;;;;;4990151;28;20339;-80
2021/07/08 18:09:10;;;;;;;3.47;2.73;;;;;;;;;;4972766;28;20026;-81
2021/07/08 18:11:36;;;;;;;3.40;2.80;;;;;;;;;;4990674;28;20269;-80
2021/07/08 18:14:01;;;;;;;3.30;2.88;;;;;;;;;;4990273;28;20050;-80
2021/07/08 18:16:26;;;;;;;3.40;2.50;;;;;;;;;;4989798;28;20066;-81
2021/07/08 18:18:52;;;;;;;3.38;2.58;;;;;;;;;;4989606;28;20257;-79
2021/07/08 18:21:17;;;;;;;2.90;2.40;;;;;;;;;;4990569;28;20038;-78
2021/07/08 18:23:42;;;;;;;3.40;2.60;;;;;;;;;;4990580;28;20058;-82
2021/07/08 18:26:07;;;;;;;5.15;2.60;;;;;;;;;;4989568;28;20732;-79
2021/07/08 18:28:33;;;;;;;3.70;2.57;;;;;;;;;;4972353;28;20165;-76
2021/07/08 18:30:58;;;;;;;3.60;2.60;;;;;;;;;;4989495;28;20034;-76
2021/07/08 18:33:23;;;;;;;4.43;2.50;;;;;;;;;;4971967;28;20128;-82
2021/07/08 18:35:48;;;;;;;4.45;2.80;;;;;;;;;;4972072;28;20768;-78
2021/07/08 18:38:14;;;;;;;3.15;2.63;;;;;;;;;;4989536;28;20493;-76
2021/07/08 18:40:39;;;;;;;3.73;2.40;;;;;;;;;;4989688;28;20023;-84
2021/07/08 18:43:04;;;;;;;3.00;2.07;;;;;;;;;;4989762;28;20087;-79
2021/07/08 18:45:30;;;;;;;3.80;2.38;;;;;;;;;;4990332;28;20633;-83
2021/07/08 18:47:55;;;;;;;3.33;2.30;;;;;;;;;;4973534;28;20061;-82
2021/07/08 18:50:20;;;;;;;3.00;2.23;;;;;;;;;;4972974;28;20030;-81
2021/07/08 18:52:45;;;;;;;2.95;2.50;;;;;;;;;;4972879;28;20281;-79
2021/07/08 18:55:16;;;;;;;3.63;2.60;;;;;;;;;;4989578;28;20045;-84
2021/07/08 18:57:41;;;;;;;3.83;2.25;;;;;;;;;;4989975;28;20289;-80